Lower Kalskag, AK (99626)

5:33 PM AKST on November 20, 2017 (GMT -0900)
Kalskag AP, Kalskag, AK | | Change Station

Elev 56 ft 61.54 °N, 160.34 °W | Updated 2 hours ago

Partly Cloudy
Partly Cloudy
7 °F
Feels Like 0 °F
N
4
Wind Variable Wind from NE

Today
High -- | Low -- °F
--% Chance of Precip.
Yesterday
High -- | Low -- °F
Precip. -- in
Pressure 30.14 in
Visibility -9999.0 miles
Clouds Clear
Windchill 0 °F
Dew Point 0 °F
Humidity 73%
Rainfall 0.00 in
Snow Depth Not available.
10:04 AM 4:49 PM
Waxing Crescent, 6% visible
METAR PALG 202356Z AUTO 05003KT CLR M14/M18 A3013 RMK AO2 SLP207 T11391178 11128 21178 56011 PWINO FZRANO $
Pressure 30.14 in
Visibility -9999.0 miles
Clouds Clear
Windchill 0 °F
Dew Point 0 °F
Humidity 73%
Rainfall 0.00 in
Snow Depth Not available.
10:04 AM 4:49 PM
Waxing Crescent, 6% visible
METAR PALG 202356Z AUTO 05003KT CLR M14/M18 A3013 RMK AO2 SLP207 T11391178 11128 21178 56011 PWINO FZRANO $

Get Severe Weather Alerts

Thanks for signing up!

Be on the lookout for a verification email in your inbox.

You'll start receiving the daily forecast at 6 AM.

×

10-Day Weather Forecast

Almanac

Astronomy

Nov. 20, 2017 Rise Set
Actual Time
Civil Twilight
Nautical Twilight
Astronomical Twilight
Moon
Length of Visible Light
Length of Day
Tomorrow will be .
, % of the Moon is Illuminated

Today's Extremes

State Highs State Lows

Community

WunderPhotos

Category 6

Welcome to Category 6. This is the collective home for Weather Underground's featured writeups by Dr. Jeff Masters (right), Bob Henson (left), Chris Burt, and other regular contributors.

Nearby

Air Quality

  Air Quality AQ Index Pollutant
Not available.

Snow Depth

Station Depth Elevation

Earthquake Activity

City Distance Mag. Time & Date
Minimum magnitude displayed is 2.5.

Coastal Water Temperatures

Place Temperature

Stations

Nearby Weather Stations

Station Location Temp. Windchill Dew Point Humidity Wind Precip. Elev Updated Type
                   

Watches & Warnings

There are currently no watches in effect.